Tiempo atmosférico en la estación meteorológica de Prat de Lluçanès, Barcelona (700 m.)



Fecha
DESCASC
Temp. máxima en grados centígrados (hora)
DESCASC
Temp. mínima en grados centígrados (hora)
DESCASC
Temp. media en grados centígrados
DESCASC
Racha de viento máxima en m/sg (hora)
DESCASC
Velocidad máxima media en intervalos de 10 minutos(hora)
DESCASC
Precipitaciones diarias en mm
DESCASC
Precipitaciones de 00:00 a 06:00 en mm
DESCASC
Precipitaciones de 06:00 a 12:00 en mm
DESCASC
Precipitaciones de 12:00 a 18:00 en mm
DESCASC
Precipitaciones de 18:00 a 24:00 en mm
DESCASC

Gráficas

Temp. máximas Temp. mínimas Temp. medias Precipitaciones Rachas de viento máximas Velocidades máximas media en intervalos de 10 minutos

Datos horarios

Fecha y hora oficial Temperatura (ºC) Velocidad del viento (km/h) Dirección del viento Racha (km/h) Dirección de racha Precipitación (mm) Presión (hPa) Tendencia (hPa) Humedad (%)
2019-08-17 23:00:00 21.5 2 Sur 4 Sur 0 -- -- 81
2019-08-17 22:00:00 23 2 Noroeste 10 Sudoeste 0 -- -- 75
2019-08-17 21:00:00 24.8 6 Sur 19 Sudoeste 0 -- -- 66
2019-08-17 20:00:00 27.6 10 Sur 22 Sur 0 -- -- 59
2019-08-17 19:00:00 29.8 9 Sur 27 Sudoeste 0 -- -- 53
2019-08-17 18:00:00 31.5 9 Sur 24 Sur 0 -- -- 50
2019-08-17 17:00:00 32.6 6 Sur 22 Sur 0 -- -- 42
2019-08-17 16:00:00 32.3 8 Sur 22 Sur 0 -- -- 42
2019-08-17 15:00:00 31.9 6 Sur 18 Sudoeste 0 -- -- 39
2019-08-17 14:00:00 30.6 5 Sur 16 Oeste 0 -- -- 42
2019-08-17 13:00:00 29.2 4 Sur 15 Sur 0 -- -- 46
2019-08-17 12:00:00 27.5 4 Sur 12 Sur 0 -- -- 53
2019-08-17 11:00:00 25.8 3 Sur 11 Sur 0 -- -- 65
2019-08-17 10:00:00 24.4 4 Este 7 Este 0 -- -- 71
2019-08-17 09:00:00 22.4 2 Sudeste 6 Este 0 -- -- 79
2019-08-17 08:00:00 17.9 3 Noroeste 5 Noroeste 0 -- -- 97
2019-08-17 07:00:00 17.2 3 Noroeste 6 Noroeste 0 -- -- 96
2019-08-17 06:00:00 17.4 3 Norte 6 Noroeste 0 -- -- 97
2019-08-17 05:00:00 17.1 3 Noroeste 5 Noroeste 0 -- -- 96
2019-08-17 04:00:00 18.1 3 Noroeste 5 Noroeste 0 -- -- 94
2019-08-17 03:00:00 18.6 5 Noroeste 7 Noroeste 0 -- -- 92
2019-08-17 02:00:00 19.1 3 Noroeste 6 Noroeste 0 -- -- 93
2019-08-17 01:00:00 19 4 Noroeste 6 Noroeste 0 -- -- 92
2019-08-17 00:00:00 19.9 2 Norte 5 Noroeste 0 -- -- 88
2019-08-16 23:00:00 20.7 0 Calma 4 Noroeste 0 -- -- 86
2019-08-16 22:00:00 22.3 2 Noroeste 6 Sur 0 -- -- 78
2019-08-16 21:00:00 24.9 2 Sudoeste 12 Sur 0 -- -- 67
2019-08-16 20:00:00 27.5 4 Sur 24 Sur 0 -- -- 58
2019-08-16 19:00:00 28.7 9 Sur 22 Sur 0 -- -- 54
2019-08-16 18:00:00 29.2 6 Sur 24 Sur 0 -- -- 54
2019-08-16 17:00:00 29.5 8 Sur 25 Sur 0 -- -- 52
2019-08-16 16:00:00 28.5 12 Sur 27 Sudoeste 0 -- -- 54
2019-08-16 15:00:00 27.5 11 Sur 27 Sur 0 -- -- 54
2019-08-16 14:00:00 26.2 10 Sur 28 Sur 0 -- -- 59
2019-08-16 13:00:00 25.1 9 Sur 21 Sudoeste 0 -- -- 61
2019-08-16 12:00:00 23.8 5 Sur 19 Sudoeste 0 -- -- 66
2019-08-16 11:00:00 21.6 10 Sudoeste 17 Sudoeste 0 -- -- 80
2019-08-16 10:00:00 19.7 5 Oeste 13 Sudoeste 0 -- -- 91
2019-08-16 09:00:00 19 5 Sur 12 Sur 0 -- -- 96
2019-08-16 08:00:00 18.3 4 Sur 10 Sur 0 -- -- 97
2019-08-16 07:00:00 18.3 5 Sur 12 Sur 0 -- -- 97
2019-08-16 06:00:00 18.4 4 Sudoeste 6 Sur 0 -- -- 96
2019-08-16 05:00:00 18.4 3 Sudoeste 8 Sur 0 -- -- 95
2019-08-16 04:00:00 18.7 3 Sudoeste 6 Sur 0 -- -- 95
2019-08-16 03:00:00 18.7 3 Sudoeste 6 Sudoeste 0 -- -- 95
2019-08-16 02:00:00 18.7 0 Calma 0 Calma 0 -- -- 95
2019-08-16 01:00:00 18.7 0 Calma 11 Este 0 -- -- 95
2019-08-16 00:00:00 18.5 3 Sudeste 15 Nordeste 0 -- -- 95
2019-08-15 23:00:00 18.5 7 Este 15 Nordeste 0 -- -- 96
2019-08-15 22:00:00 18.7 9 Nordeste 21 Nordeste 17 -- -- 97
2019-08-15 21:00:00 19.2 15 Nordeste 30 Este 12.8 -- -- 94
2019-08-15 20:00:00 22.7 13 Este 24 Nordeste 0 -- -- 73
2019-08-15 19:00:00 24.5 9 Este 26 Este 0 -- -- 67
2019-08-15 18:00:00 30.2 14 Sur 31 Sudoeste 0 -- -- 43
2019-08-15 17:00:00 29.7 19 Sudoeste 40 Sudoeste 0 -- -- 37
2019-08-15 16:00:00 29.8 16 Sudoeste 37 Sudoeste 0 -- -- 37
2019-08-15 15:00:00 27.9 10 Sur 28 Sur 0 -- -- 45
2019-08-15 14:00:00 27.5 6 Sur 24 Sudoeste 0 -- -- 48
2019-08-15 13:00:00 26.3 5 Sur 19 Sudoeste 0 -- -- 53
2019-08-15 12:00:00 24.8 4 Sur 16 Sur 0 -- -- 60
2019-08-15 11:00:00 22.8 3 Sudeste 13 Sudoeste 0 -- -- 67
2019-08-15 10:00:00 20.4 4 Sur 9 Oeste 0 -- -- 77
2019-08-15 09:00:00 19.1 0 Calma 4 Noroeste 0 -- -- 82
2019-08-15 08:00:00 15.3 3 Norte 6 Noroeste 0 -- -- 95
2019-08-15 07:00:00 14.5 4 Noroeste 6 Noroeste 0 -- -- 93
2019-08-15 06:00:00 14.9 3 Noroeste 5 Noroeste 0 -- -- 91
2019-08-15 05:00:00 15.1 3 Norte 6 Noroeste 0 -- -- 90
2019-08-15 04:00:00 15.3 2 Oeste 5 Noroeste 0 -- -- 89
2019-08-15 03:00:00 15.4 3 Norte 6 Norte 0 -- -- 88
2019-08-15 02:00:00 15.7 3 Norte 6 Noroeste 0 -- -- 87
2019-08-15 01:00:00 16.7 2 Norte 6 Noroeste 0 -- -- 83
2019-08-15 00:00:00 17.6 4 Noroeste 6 Norte 0 -- -- 79
2019-08-14 23:00:00 19.6 4 Sudoeste 6 Sur 0 -- -- 74
2019-08-14 22:00:00 21.2 3 Sudoeste 6 Sudoeste 0 -- -- 68
2019-08-14 21:00:00 23.2 2 Sudeste 15 Sur 0 -- -- 60
2019-08-14 20:00:00 25.7 5 Sur 23 Sur 0 -- -- 51
2019-08-14 19:00:00 27.7 7 Sur 25 Sur 0 -- -- 42
2019-08-14 18:00:00 29 7 Sur 27 Sur 0 -- -- 26
2019-08-14 17:00:00 28.6 12 Sudoeste 23 Sudoeste 0 -- -- 29
2019-08-14 16:00:00 28.4 9 Sur 29 Sudoeste 0 -- -- 33
2019-08-14 15:00:00 26.6 5 Nordeste 15 Este 0 -- -- 36
2019-08-14 14:00:00 24.8 5 Sudoeste 17 Sudoeste 0 -- -- 38
2019-08-14 13:00:00 23.5 7 Sudoeste 18 Sur 0 -- -- 42
2019-08-14 12:00:00 22.1 4 Sur 18 Sudoeste 0 -- -- 46
2019-08-14 11:00:00 20.2 4 Sur 16 Sur 0 -- -- 52
2019-08-14 10:00:00 18.6 3 Sur 10 Sur 0 -- -- 64
2019-08-14 09:00:00 17.3 3 Sur 7 Sudoeste 0 -- -- 83
2019-08-14 08:00:00 13.7 0 Calma 5 Noroeste 0 -- -- 97
2019-08-14 07:00:00 12.9 3 Noroeste 6 Noroeste 0 -- -- 96
2019-08-14 06:00:00 12.7 2 Norte 6 Norte 0 -- -- 94
2019-08-14 05:00:00 13.3 0 Calma 4 Noroeste 0 -- -- 92
2019-08-14 04:00:00 14.3 0 Calma 4 Noroeste 0 -- -- 88
2019-08-14 03:00:00 15.7 3 Noroeste 9 Nordeste 0 -- -- 84
2019-08-14 02:00:00 17 4 Nordeste 12 Nordeste 0 -- -- 80
2019-08-14 01:00:00 17.6 5 Nordeste 12 Nordeste 0 -- -- 76
2019-08-14 00:00:00 18 2 Nordeste 10 Nordeste 0 -- -- 69
2019-08-13 23:00:00 18.8 2 Norte 10 Este 0 -- -- 52
2019-08-13 22:00:00 20 4 Oeste 8 Oeste 0 -- -- 46
2019-08-13 21:00:00 21.8 3 Sudoeste 15 Sur 0 -- -- 43
2019-08-13 20:00:00 24.2 7 Sur 18 Sur 0 -- -- 36
2019-08-13 19:00:00 25.5 10 Sur 21 Sur 0 -- -- 32
2019-08-13 18:00:00 25.9 10 Sur 26 Sudoeste 0 -- -- 29
2019-08-13 17:00:00 26 9 Sur 24 Sur 0 -- -- 31
2019-08-13 16:00:00 25.6 10 Sur 28 Sur 0 -- -- 31
2019-08-13 15:00:00 24.7 12 Sudoeste 28 Sur 0 -- -- 33
2019-08-13 14:00:00 23.4 9 Sur 30 Sudoeste 0 -- -- 42
2019-08-13 13:00:00 21.9 10 Sudoeste 25 Sudoeste 0 -- -- 46
2019-08-13 12:00:00 20 9 Sudoeste 16 Sur 0 -- -- 54
2019-08-13 11:00:00 17.3 5 Sudoeste 12 Sudoeste 0 -- -- 64
2019-08-13 10:00:00 15 6 Oeste 12 Sudoeste 0 -- -- 71
2019-08-13 09:00:00 14 5 Sudoeste 10 Sudoeste 0 -- -- 73
2019-08-13 08:00:00 13.1 8 Sudoeste 16 Sudoeste 0 -- -- 77
2019-08-13 07:00:00 11.4 0 Calma 6 Noroeste 0 -- -- 84
2019-08-13 06:00:00 12.2 2 Norte 8 Sur 0 -- -- 79
2019-08-13 05:00:00 14.3 3 Sur 16 Oeste 0 -- -- 67
2019-08-13 04:00:00 15.1 12 Oeste 21 Oeste 0 -- -- 65
2019-08-13 03:00:00 15.9 16 Oeste 24 Sudoeste 0 -- -- 62
2019-08-13 02:00:00 17 5 Sudoeste 15 Sur 0 -- -- 83
2019-08-13 01:00:00 18.6 9 Sudoeste 15 Sudoeste 0 -- -- 87
2019-08-13 00:00:00 18.7 0 Calma 6 Sur 0 -- -- 86
2019-08-12 23:00:00 19.4 3 Sur 8 Sur 0 -- -- 82
2019-08-12 22:00:00 20.6 3 Sur 17 Este 0 -- -- 65
2019-08-12 21:00:00 21.6 5 Sudeste 23 Este 0 -- -- 56
2019-08-12 20:00:00 26.2 5 Sur 28 Sudoeste 0 -- -- 54
2019-08-12 19:00:00 27 9 Sur 26 Oeste 0 -- -- 38
2019-08-12 18:00:00 27.3 15 Sudoeste 27 Sur 0 -- -- 32
2019-08-12 17:00:00 27 12 Sur 28 Sudoeste 0 -- -- 39
2019-08-12 16:00:00 26.4 10 Sudoeste 25 Sudoeste 0 -- -- 43
2019-08-12 15:00:00 25.4 10 Sudoeste 26 Sur 0 -- -- 56
2019-08-12 14:00:00 24.2 6 Sur 24 Sur 0 -- -- 60
2019-08-12 13:00:00 22.6 6 Sur 15 Sur 0 -- -- 68
2019-08-12 12:00:00 20.5 8 Oeste 15 Oeste 0 -- -- 75
2019-08-12 11:00:00 18.9 7 Oeste 12 Oeste 0 -- -- 80
2019-08-12 10:00:00 18.5 5 Sudoeste 12 Oeste 0 -- -- 90
2019-08-12 09:00:00 18.9 4 Sudoeste 7 Oeste 0 -- -- 91
2019-08-12 08:00:00 18.2 0 Calma 3 Oeste 0.2 -- -- 95
2019-08-12 07:00:00 17.6 2 Noroeste 9 Noroeste 0 -- -- 96
2019-08-12 06:00:00 16.9 7 Noroeste 28 Sudoeste 5.4 -- -- 97
2019-08-12 05:00:00 19.5 5 Sudeste 21 Sudoeste 2 -- -- 91
2019-08-12 04:00:00 20.1 0 Calma 7 Sur 0 -- -- 87
2019-08-12 03:00:00 20.9 2 Sudeste 10 Este 0.2 -- -- 84
2019-08-12 02:00:00 21.5 4 Este 10 Nordeste 0 -- -- 74
2019-08-12 01:00:00 21.6 6 Este 15 Este 0 -- -- 75
2019-08-12 00:00:00 21.9 8 Este 15 Este 0 -- -- 73
2019-08-11 23:00:00 22.7 7 Nordeste 16 Este 0 -- -- 69
2019-08-11 22:00:00 23.6 10 Este 17 Este 0 -- -- 66
2019-08-11 21:00:00 24.8 12 Este 21 Este 0 -- -- 61
2019-08-11 20:00:00 28.6 4 Sur 14 Sur 0 -- -- 46
2019-08-11 19:00:00 28.1 6 Sudoeste 22 Sudoeste 0 -- -- 48
2019-08-11 18:00:00 28.7 13 Oeste 29 Sudoeste 0 -- -- 47
2019-08-11 17:00:00 31.3 15 Oeste 35 Oeste 0 -- -- 38
2019-08-11 16:00:00 31.9 9 Oeste 34 Sur 0 -- -- 38
2019-08-11 15:00:00 30.6 13 Sudoeste 30 Oeste 0 -- -- 41
2019-08-11 14:00:00 29.7 9 Oeste 25 Sudoeste 0 -- -- 44
2019-08-11 13:00:00 28.7 14 Sudoeste 27 Oeste 0 -- -- 47
2019-08-11 12:00:00 27.1 13 Sudoeste 24 Sudoeste 0 -- -- 50
2019-08-11 11:00:00 26.1 6 Sur 22 Sudoeste 0 -- -- 54
2019-08-11 10:00:00 25.2 5 Oeste 14 Noroeste 0 -- -- 59
2019-08-11 09:00:00 23.4 5 Nordeste 9 Nordeste 0 -- -- 65
2019-08-11 08:00:00 18.9 2 Norte 5 Nordeste 0 -- -- 85
2019-08-11 07:00:00 18.1 3 Noroeste 6 Noroeste 0 -- -- 84
2019-08-11 06:00:00 17.8 4 Noroeste 5 Noroeste 0 -- -- 85
2019-08-11 05:00:00 19 3 Noroeste 5 Norte 0 -- -- 81
2019-08-11 04:00:00 20.2 0 Calma 8 Nordeste 0 -- -- 76
2019-08-11 03:00:00 20.9 4 Nordeste 8 Nordeste 0 -- -- 75
2019-08-11 02:00:00 21 3 Nordeste 7 Nordeste 0 -- -- 75
2019-08-11 01:00:00 22.2 2 Norte 13 Este 0 -- -- 71
2019-08-11 00:00:00 23.4 7 Nordeste 17 Este 0 -- -- 68
2019-08-10 23:00:00 23.9 10 Este 20 Este 0 -- -- 68
2019-08-10 22:00:00 25 11 Este 21 Este 0 -- -- 65
2019-08-10 21:00:00 26.9 10 Este 21 Este 0 -- -- 60
2019-08-10 20:00:00 30.9 9 Sur 21 Sur 0 -- -- 47
2019-08-10 19:00:00 32.5 9 Sur 27 Oeste 0 -- -- 37
2019-08-10 18:00:00 33 16 Sudoeste 31 Sudoeste 0 -- -- 30
2019-08-10 17:00:00 33 14 Oeste 34 Sur 0 -- -- 30
2019-08-10 16:00:00 32.6 18 Sudoeste 37 Sudoeste 0 -- -- 33
2019-08-10 15:00:00 32.2 14 Sur 31 Sur 0 -- -- 35
2019-08-10 14:00:00 31.4 13 Sudoeste 33 Oeste 0 -- -- 36
2019-08-10 13:00:00 30 8 Sudoeste 28 Sur 0 -- -- 40
2019-08-10 12:00:00 28.9 9 Sur 24 Sudoeste 0 -- -- 45
2019-08-10 11:00:00 26.6 9 Sudoeste 21 Sur 0 -- -- 51
2019-08-10 10:00:00 25.3 4 Sur 12 Sudoeste 0 -- -- 55
2019-08-10 09:00:00 23.5 3 Sur 8 Sur 0 -- -- 61
2019-08-10 08:00:00 19.4 0 Calma 5 Noroeste 0 -- -- 79
2019-08-10 07:00:00 18 0 Calma 3 Noroeste 0 -- -- 76
2019-08-10 06:00:00 18.4 0 Calma 6 Noroeste 0 -- -- 73
2019-08-10 05:00:00 19.3 4 Norte 6 Noroeste 0 -- -- 70
2019-08-10 04:00:00 20.2 2 Norte 6 Noroeste 0 -- -- 67
2019-08-10 03:00:00 20.4 4 Norte 6 Noroeste 0 -- -- 66
2019-08-10 02:00:00 21.1 3 Norte 6 Noroeste 0 -- -- 65
2019-08-10 01:00:00 21.7 5 Noroeste 6 Noroeste 0 -- -- 63
2019-08-10 00:00:00 23.4 4 Noroeste 7 Oeste 0 -- -- 58
2019-08-09 23:00:00 27.2 4 Sudoeste 14 Sudoeste 0 -- -- 47
2019-08-09 22:00:00 28.2 4 Sur 18 Sur 0 -- -- 50
2019-08-09 21:00:00 30.2 9 Sur 26 Sudoeste 0 -- -- 48
2019-08-09 20:00:00 34.1 18 Sudoeste 32 Sudoeste 0 -- -- 25
2019-08-09 19:00:00 35.4 18 Sudoeste 33 Sur 0 -- -- 20
2019-08-09 18:00:00 36 21 Sudoeste 42 Sudoeste 0 -- -- 18
2019-08-09 17:00:00 36 24 Sudoeste 49 Sudoeste 0 -- -- 16
2019-08-09 16:00:00 36.2 18 Sudoeste 40 Sudoeste 0 -- -- 20
2019-08-09 15:00:00 35.6 17 Sudoeste 53 Sudoeste 0 -- -- 23
2019-08-09 14:00:00 34.7 23 Sudoeste 40 Sudoeste 0 -- -- 26
2019-08-09 13:00:00 33.6 13 Sudoeste 35 Sur 0 -- -- 31
2019-08-09 12:00:00 31.9 16 Sudoeste 29 Sur 0 -- -- 37
2019-08-09 11:00:00 29.3 8 Sur 18 Sudoeste 0 -- -- 44
2019-08-09 10:00:00 27.2 4 Sur 12 Sur 0 -- -- 51
2019-08-09 09:00:00 25.2 2 Sur 7 Sudoeste 0 -- -- 57
2019-08-09 08:00:00 18.9 0 Calma 5 Noroeste 0 -- -- 87
2019-08-09 07:00:00 17.7 3 Noroeste 8 Noroeste 0 -- -- 86
2019-08-09 06:00:00 17.9 3 Norte 7 Noroeste 0 -- -- 85
2019-08-09 05:00:00 18.7 0 Calma 9 Noroeste 0 -- -- 82
2019-08-09 04:00:00 18.8 5 Noroeste 6 Noroeste 0 -- -- 82
2019-08-09 03:00:00 19.4 2 Norte 6 Noroeste 0 -- -- 80
2019-08-09 02:00:00 19.8 5 Norte 7 Noroeste 0 -- -- 77
2019-08-09 01:00:00 20.7 3 Norte 5 Noroeste 0 -- -- 74
2019-08-09 00:00:00 22 3 Noroeste 8 Sudoeste 0 -- -- 69
2019-08-08 23:00:00 24.4 4 Sudoeste 8 Sur 0 -- -- 64
2019-08-08 22:00:00 25.8 3 Sur 15 Sudoeste 0 -- -- 62
2019-08-08 21:00:00 27.7 8 Sur 23 Sur 0 -- -- 56
2019-08-08 20:00:00 30.8 8 Sur 26 Sudoeste 0 -- -- 48
2019-08-08 19:00:00 32.3 13 Sur 29 Sur 0 -- -- 41
2019-08-08 18:00:00 33.3 14 Sudoeste 32 Sudoeste 0 -- -- 31
2019-08-08 17:00:00 33.9 15 Sudoeste 35 Sur 0 -- -- 30
2019-08-08 16:00:00 33.5 12 Sur 31 Sudoeste 0 -- -- 31
2019-08-08 15:00:00 32.9 13 Sudoeste 34 Sudoeste 0 -- -- 31
2019-08-08 14:00:00 32.1 13 Sudoeste 29 Sudoeste 0 -- -- 33
2019-08-08 13:00:00 29.7 12 Sudoeste 27 Sur 0 -- -- 43
2019-08-08 12:00:00 29.2 15 Oeste 28 Sudoeste 0 -- -- 44
2019-08-08 11:00:00 27.5 10 Sudoeste 18 Sudoeste 0 -- -- 49
2019-08-08 10:00:00 25.3 9 Oeste 15 Sur 0 -- -- 61
2019-08-08 09:00:00 22.6 3 Sur 5 Sur 0 -- -- 85
2019-08-08 08:00:00 20.4 0 Calma 8 Norte 0 -- -- 93
2019-08-08 07:00:00 20.4 3 Noroeste 5 Noroeste 0 -- -- 93
2019-08-08 06:00:00 20.7 0 Calma 5 Noroeste 0 -- -- 94
2019-08-08 05:00:00 19.9 4 Noroeste 6 Noroeste 0 -- -- 89
2019-08-08 04:00:00 20.1 3 Noroeste 5 Noroeste 0 -- -- 84
2019-08-08 03:00:00 20.7 0 Calma 4 Noroeste 0 -- -- 84
2019-08-08 02:00:00 20.9 0 Calma 5 Noroeste 0 -- -- 82
2019-08-08 01:00:00 21.6 3 Noroeste 10 Nordeste 0 -- -- 78
2019-08-08 00:00:00 21.9 5 Nordeste 13 Nordeste 0 -- -- 76
2019-08-07 23:00:00 22.1 5 Norte 13 Nordeste 0 -- -- 75
2019-08-07 22:00:00 22.9 5 Nordeste 12 Nordeste 0 -- -- 71
2019-08-07 21:00:00 23.6 5 Nordeste 14 Norte 0 -- -- 71
2019-08-07 20:00:00 24.8 5 Sudeste 14 Sudeste 0 -- -- 69
2019-08-07 19:00:00 26 5 Sur 17 Sur 0 -- -- 70
2019-08-07 18:00:00 27 9 Sur 27 Sur 0 -- -- 65
2019-08-07 17:00:00 30 13 Sur 29 Sudoeste 0 -- -- 53
2019-08-07 16:00:00 31.3 12 Sur 29 Sudoeste 0 -- -- 45
2019-08-07 15:00:00 29.8 4 Sur 18 Sudoeste 0 -- -- 49
2019-08-07 14:00:00 29 6 Sur 20 Sudoeste 0 -- -- 50
2019-08-07 13:00:00 27.8 8 Sur 21 Sur 0 -- -- 56
2019-08-07 12:00:00 28.1 5 Sur 16 Sur 0 -- -- 58
2019-08-07 11:00:00 24.5 3 Sudoeste 8 Sudoeste 0 -- -- 72
2019-08-07 10:00:00 23.1 4 Oeste 10 Noroeste 0 -- -- 81
2019-08-07 09:00:00 21.7 3 Noroeste 8 Noroeste 0 -- -- 87
2019-08-07 08:00:00 20.3 2 Norte 5 Noroeste 0 -- -- 94
2019-08-07 07:00:00 20.1 4 Noroeste 8 Noroeste 0 -- -- 94
2019-08-07 06:00:00 20.5 4 Noroeste 9 Sudoeste 0 -- -- 94
2019-08-07 05:00:00 20.4 2 Oeste 7 Noroeste 0 -- -- 90
2019-08-07 04:00:00 21.5 0 Calma 6 Sur 0 -- -- 83
2019-08-07 03:00:00 22.4 3 Este 9 Este 0 -- -- 84
2019-08-07 02:00:00 22.9 3 Este 16 Este 0 -- -- 78
2019-08-07 01:00:00 23.2 5 Nordeste 12 Nordeste 0 -- -- 75
2019-08-07 00:00:00 23 0 Calma 6 Oeste 0 -- -- 76
2019-08-06 23:00:00 24.6 2 Norte 9 Oeste 0 -- -- 71
2019-08-06 22:00:00 25.7 4 Oeste 10 Sur 0 -- -- 66
2019-08-06 21:00:00 27.7 5 Sur 14 Sur 0 -- -- 58
2019-08-06 20:00:00 30.7 10 Sur 21 Sudoeste 0 -- -- 49
2019-08-06 19:00:00 31.7 5 Sur 17 Sudoeste 0 -- -- 41
2019-08-06 18:00:00 33 5 Sur 21 Sur 0 -- -- 34
2019-08-06 17:00:00 33.5 8 Sur 23 Sudoeste 0 -- -- 34
2019-08-06 16:00:00 33.5 5 Sudeste 19 Sur 0 -- -- 35
2019-08-06 15:00:00 32.9 6 Sur 26 Sudoeste 0 -- -- 37
2019-08-06 14:00:00 31.8 6 Sur 25 Sudoeste 0 -- -- 36
2019-08-06 13:00:00 31.6 6 Sur 22 Sudoeste 0 -- -- 36
2019-08-06 12:00:00 30.3 7 Sur 16 Sur 0 -- -- 38
2019-08-06 11:00:00 28.6 4 Sudeste 13 Este 0 -- -- 45
2019-08-06 10:00:00 26.8 6 Este 18 Este 0 -- -- 50
2019-08-06 09:00:00 25.3 4 Nordeste 10 Nordeste 0 -- -- 52
2019-08-06 08:00:00 22.4 8 Nordeste 13 Nordeste 0 -- -- 61
2019-08-06 07:00:00 21 4 Norte 10 Nordeste 0 -- -- 64
2019-08-06 06:00:00 19.9 0 Calma 6 Norte 0 -- -- 66
2019-08-06 05:00:00 20.5 3 Norte 10 Nordeste 0 -- -- 64
2019-08-06 04:00:00 19.5 3 Noroeste 5 Noroeste 0 -- -- 68
2019-08-06 03:00:00 18.3 4 Norte 6 Noroeste 0 -- -- 71
2019-08-06 02:00:00 18.8 3 Norte 6 Noroeste 0 -- -- 68
2019-08-06 01:00:00 20 3 Noroeste 5 Noroeste 0 -- -- 64
2019-08-06 00:00:00 20.7 3 Norte 6 Noroeste 0 -- -- 62
2019-08-05 23:00:00 21.4 5 Noroeste 6 Noroeste 0 -- -- 59
2019-08-05 22:00:00 23.4 3 Noroeste 6 Sudoeste 0 -- -- 53
2019-08-05 21:00:00 27.2 4 Sur 19 Sur 0 -- -- 44
2019-08-05 20:00:00 29.7 9 Sur 22 Sur 0 -- -- 39
2019-08-05 19:00:00 32 10 Sur 25 Sudoeste 0 -- -- 35
2019-08-05 18:00:00 33.6 8 Sur 24 Sur 0 -- -- 32
2019-08-05 17:00:00 34.2 9 Sur 28 Sudoeste 0 -- -- 31
2019-08-05 16:00:00 33.8 8 Sudoeste 26 Sur 0 -- -- 30
2019-08-05 15:00:00 33.2 7 Sur 26 Sudoeste 0 -- -- 30
2019-08-05 14:00:00 32.5 8 Sur 26 Sur 0 -- -- 31
2019-08-05 13:00:00 31.4 6 Sur 18 Sur 0 -- -- 31
2019-08-05 12:00:00 30.1 5 Sur 16 Sudoeste 0 -- -- 33
2019-08-05 11:00:00 28.6 5 Sudeste 15 Sudoeste 0 -- -- 37
2019-08-05 10:00:00 26.9 4 Este 8 Este 0 -- -- 43
2019-08-05 09:00:00 23.5 0 Calma 4 Nordeste 0 -- -- 54
2019-08-05 08:00:00 17.8 4 Noroeste 5 Noroeste 0 -- -- 76
2019-08-05 07:00:00 16.4 2 Norte 6 Noroeste 0 -- -- 78
2019-08-05 06:00:00 16.8 4 Noroeste 6 Noroeste 0 -- -- 77
2019-08-05 05:00:00 17.5 0 Calma 8 Noroeste 0 -- -- 77
2019-08-05 04:00:00 17 5 Noroeste 7 Noroeste 0 -- -- 78
2019-08-05 03:00:00 17.6 3 Norte 5 Norte 0 -- -- 76
2019-08-05 02:00:00 18.7 2 Noroeste 6 Noroeste 0 -- -- 72
2019-08-05 01:00:00 18.7 5 Noroeste 6 Norte 0 -- -- 69
2019-08-05 00:00:00 19.5 4 Norte 6 Noroeste 0 -- -- 66
2019-08-04 23:00:00 21.2 2 Norte 6 Noroeste 0 -- -- 62
2019-08-04 22:00:00 23.1 4 Noroeste 6 Oeste 0 -- -- 56
2019-08-04 21:00:00 26.7 4 Sudoeste 10 Sudoeste 0 -- -- 46
2019-08-04 20:00:00 28.8 2 Sur 15 Sur 0 -- -- 44
2019-08-04 19:00:00 29.3 6 Sur 21 Sur 0 -- -- 44
2019-08-04 18:00:00 29.1 6 Sur 32 Sudoeste 0 -- -- 48
2019-08-04 17:00:00 33.2 15 Sur 28 Sur 0 -- -- 40
2019-08-04 16:00:00 33.9 10 Sur 26 Sudoeste 0 -- -- 33
2019-08-04 15:00:00 33.6 5 Sudeste 26 Sudoeste 0 -- -- 33
2019-08-04 14:00:00 32.3 4 Sudeste 16 Sudoeste 0 -- -- 35
2019-08-04 13:00:00 31.1 5 Sur 16 Sur 0 -- -- 34
2019-08-04 12:00:00 30 7 Sur 17 Sur 0 -- -- 37
2019-08-04 11:00:00 28.2 5 Sudeste 14 Nordeste 0 -- -- 41
2019-08-04 10:00:00 26.1 8 Este 13 Este 0 -- -- 47
2019-08-04 09:00:00 23.9 5 Nordeste 10 Nordeste 0 -- -- 54
2019-08-04 08:00:00 19.9 5 Nordeste 11 Nordeste 0 -- -- 66
2019-08-04 07:00:00 16.2 4 Noroeste 6 Nordeste 0 -- -- 80
2019-08-04 06:00:00 15.9 3 Norte 6 Noroeste 0 -- -- 80
2019-08-04 05:00:00 16.2 4 Noroeste 6 Noroeste 0 -- -- 79
2019-08-04 04:00:00 16.4 5 Noroeste 6 Noroeste 0 -- -- 77
2019-08-04 03:00:00 17.1 3 Norte 5 Noroeste 0 -- -- 74
2019-08-04 02:00:00 18.2 0 Calma 5 Noroeste 0 -- -- 70
2019-08-04 01:00:00 19.5 4 Noroeste 8 Noroeste 0 -- -- 65
2019-08-04 00:00:00 20.5 4 Noroeste 7 Noroeste 0 -- -- 61
2019-08-03 23:00:00 22.1 3 Noroeste 5 Norte 0 -- -- 56
2019-08-03 22:00:00 24.5 0 Calma 7 Sudoeste 0 -- -- 49
2019-08-03 21:00:00 26.6 5 Sudoeste 15 Sur 0 -- -- 43
2019-08-03 20:00:00 29 8 Sur 23 Sudoeste 0 -- -- 37
2019-08-03 19:00:00 30.8 10 Sur 27 Sur 0 -- -- 34
2019-08-03 18:00:00 32 9 Sur 28 Sudoeste 0 -- -- 34
2019-08-03 17:00:00 32.7 14 Sur 34 Sudoeste 0 -- -- 34
2019-08-03 16:00:00 32.5 14 Sur 32 Sur 0 -- -- 32
2019-08-03 15:00:00 31.9 12 Sudoeste 32 Sudoeste 0 -- -- 32
2019-08-03 14:00:00 31.1 8 Sur 23 Sur 0 -- -- 33
2019-08-03 13:00:00 29.5 6 Sur 19 Sudoeste 0 -- -- 36
2019-08-03 12:00:00 27.7 5 Sur 24 Sur 0 -- -- 40
2019-08-03 11:00:00 25.8 10 Sudoeste 21 Sur 0 -- -- 40
2019-08-03 10:00:00 24.7 5 Sudoeste 14 Sudoeste 0 -- -- 46
2019-08-03 09:00:00 22.4 3 Nordeste 8 Nordeste 0 -- -- 56
2019-08-03 08:00:00 16.3 4 Noroeste 5 Noroeste 0 -- -- 85
2019-08-03 07:00:00 14.8 5 Noroeste 6 Noroeste 0 -- -- 84
2019-08-03 06:00:00 15.3 4 Noroeste 6 Noroeste 0 -- -- 82
2019-08-03 05:00:00 15.7 0 Calma 4 Noroeste 0 -- -- 79
2019-08-03 04:00:00 17.6 0 Calma 6 Noroeste 0 -- -- 73
2019-08-03 03:00:00 16.3 5 Noroeste 6 Noroeste 0 -- -- 78
2019-08-03 02:00:00 17.2 4 Noroeste 6 Noroeste 0 -- -- 74
2019-08-03 01:00:00 18.3 4 Noroeste 5 Noroeste 0 -- -- 71
2019-08-03 00:00:00 19 3 Noroeste 6 Noroeste 0 -- -- 68
2019-08-02 23:00:00 20.4 3 Noroeste 5 Noroeste 0 -- -- 63
2019-08-02 22:00:00 22.9 2 Sudeste 8 Sur 0 -- -- 57
2019-08-02 21:00:00 24.9 4 Sur 10 Sur 0 -- -- 50
2019-08-02 20:00:00 27.6 5 Sur 14 Sudoeste 0 -- -- 42
2019-08-02 19:00:00 29.5 6 Sur 35 Sur 0 -- -- 38
2019-08-02 18:00:00 30.4 12 Sur 33 Sudoeste 0 -- -- 36
2019-08-02 17:00:00 31.4 10 Sur 35 Sudoeste 0 -- -- 34
2019-08-02 16:00:00 32.7 21 Oeste 35 Oeste 0 -- -- 30
2019-08-02 15:00:00 32.1 12 Sudoeste 32 Sudoeste 0 -- -- 32
2019-08-02 14:00:00 31.1 9 Sur 27 Sur 0 -- -- 35
2019-08-02 13:00:00 29.3 9 Sudoeste 26 Sudoeste 0 -- -- 36
2019-08-02 12:00:00 27.4 12 Sudoeste 22 Sudoeste 0 -- -- 39
2019-08-02 11:00:00 25 7 Oeste 19 Oeste 0 -- -- 44
2019-08-02 10:00:00 23.8 12 Oeste 18 Sudoeste 0 -- -- 43
2019-08-02 09:00:00 22.1 2 Nordeste 6 Noroeste 0 -- -- 48
2019-08-02 08:00:00 16.9 0 Calma 6 Noroeste 0 -- -- 66
2019-08-02 07:00:00 15.9 3 Norte 7 Noroeste 0 -- -- 67
2019-08-02 06:00:00 16.4 3 Noroeste 6 Noroeste 0 -- -- 65
2019-08-02 05:00:00 17.1 0 Calma 8 Noroeste 0 -- -- 63
2019-08-02 04:00:00 17.7 4 Noroeste 14 Oeste 0 -- -- 61
2019-08-02 03:00:00 18.1 4 Noroeste 17 Noroeste 0 -- -- 60
2019-08-02 02:00:00 16.8 4 Noroeste 7 Noroeste 0 -- -- 64
2019-08-02 01:00:00 17.1 5 Noroeste 7 Noroeste 0 -- -- 63
2019-08-02 00:00:00 19.3 0 Calma 5 Noroeste 0 -- -- 54
2019-08-01 23:00:00 19.9 3 Norte 8 Nordeste 0 -- -- 54
2019-08-01 22:00:00 22.7 3 Nordeste 9 Este 0 -- -- 45
2019-08-01 21:00:00 26.5 2 Sudeste 9 Sur 0 -- -- 36
2019-08-01 20:00:00 29.1 4 Sur 17 Sudoeste 0 -- -- 33
2019-08-01 19:00:00 29.9 10 Sur 25 Sur 0 -- -- 31
2019-08-01 18:00:00 31.7 7 Sur 24 Sur 0 -- -- 30
2019-08-01 17:00:00 32.6 7 Sur 28 Este 0 -- -- 29
2019-08-01 16:00:00 31.7 7 Sudoeste 19 Sudoeste 0 -- -- 29
2019-08-01 15:00:00 31 5 Sur 21 Sudoeste 0 -- -- 31
2019-08-01 14:00:00 30 6 Sur 24 Sudoeste 0 -- -- 33
2019-08-01 13:00:00 29 6 Sudoeste 15 Sur 0 -- -- 30
2019-08-01 12:00:00 27.5 5 Sur 18 Sudoeste 0 -- -- 36
2019-08-01 11:00:00 26.3 5 Sur 17 Sudoeste 0 -- -- 44
2019-08-01 10:00:00 25.1 4 Sudeste 10 Sur 0 -- -- 59
2019-08-01 09:00:00 22.7 7 Nordeste 14 Nordeste 0 -- -- 66
2019-08-01 08:00:00 20.1 6 Nordeste 15 Nordeste 0 -- -- 77
2019-08-01 07:00:00 19.5 4 Nordeste 11 Nordeste 0 -- -- 80
2019-08-01 06:00:00 18.9 4 Norte 13 Norte 0 -- -- 80
2019-08-01 05:00:00 18.3 2 Norte 7 Nordeste 0 -- -- 84
2019-08-01 04:00:00 18 0 Calma 6 Nordeste 0 -- -- 86
2019-08-01 03:00:00 18.6 2 Norte 6 Noroeste 0 -- -- 85
2019-08-01 02:00:00 19.4 4 Nordeste 11 Este 0 -- -- 83
2019-08-01 01:00:00 20.1 6 Oeste 9 Oeste 0 -- -- 81
2019-08-01 00:00:00 19.6 2 Noroeste 5 Sudoeste 0 -- -- 81
2019-07-31 23:00:00 20.8 0 Calma 7 Sudoeste 0 -- -- 77
2019-07-31 22:00:00 22.2 2 Sur 8 Sur 0 -- -- 72
2019-07-31 21:00:00 23.8 7 Sur 13 Sudoeste 0 -- -- 66
2019-07-31 20:00:00 25.9 9 Sur 21 Sur 0 -- -- 59
2019-07-31 19:00:00 27.2 13 Sur 26 Sur 0 -- -- 55
2019-07-31 18:00:00 28.2 9 Sur 30 Sudoeste 0 -- -- 51
2019-07-31 17:00:00 29 12 Sudoeste 25 Sudoeste 0 -- -- 46
2019-07-31 16:00:00 28.9 9 Sur 26 Sudoeste 0 -- -- 45
2019-07-31 15:00:00 28.3 9 Sur 30 Sur 0 -- -- 41
2019-07-31 14:00:00 26.7 9 Oeste 24 Sudoeste 0 -- -- 40
2019-07-31 13:00:00 25.6 5 Nordeste 23 Oeste 0 -- -- 39
2019-07-31 12:00:00 23.5 7 Sudoeste 19 Sudoeste 0 -- -- 49
2019-07-31 11:00:00 21.9 7 Sur 14 Sur 0 -- -- 52
2019-07-31 10:00:00 19.6 3 Sudeste 8 Sudoeste 0 -- -- 60
2019-07-31 09:00:00 18 0 Calma 6 Sudoeste 0 -- -- 67
2019-07-31 08:00:00 15.9 2 Sudoeste 9 Oeste 0 -- -- 75
2019-07-31 07:00:00 15.6 5 Oeste 13 Sudoeste 0 -- -- 80
2019-07-31 06:00:00 15.8 0 Calma 6 Sur 0 -- -- 94
2019-07-31 05:00:00 17.7 0 Calma 7 Sur 0 -- -- 96
2019-07-31 04:00:00 18.1 4 Sur 10 Sur 0 -- -- 96
2019-07-31 03:00:00 18.4 0 Calma 4 Sur 0 -- -- 94
2019-07-31 02:00:00 19 2 Sur 7 Sudoeste 0 -- -- 93
2019-07-31 01:00:00 19.2 2 Sur 10 Sur 0 -- -- 92
2019-07-31 00:00:00 20.1 5 Sur 15 Sudoeste 0 -- -- 87
2019-07-30 23:00:00 20.8 4 Sur 17 Sur 0 -- -- 85
2019-07-30 22:00:00 21.1 4 Sur 15 Sudoeste 0 -- -- 82
2019-07-30 21:00:00 22.9 5 Sur 18 Sur 0 -- -- 75
2019-07-30 20:00:00 25.7 5 Sur 23 Sur 0 -- -- 65
2019-07-30 19:00:00 25.7 8 Sur 27 Sudoeste 0 -- -- 62
2019-07-30 18:00:00 27 8 Sur 29 Sur 0 -- -- 56
2019-07-30 17:00:00 27.4 5 Sur 23 Sur 0 -- -- 48
2019-07-30 16:00:00 29.3 13 Sudoeste 31 Sur 0 -- -- 40
2019-07-30 15:00:00 27.6 8 Sur 31 Sudoeste 0 -- -- 46
2019-07-30 14:00:00 26.4 14 Sudoeste 28 Sudoeste 0 -- -- 52
2019-07-30 13:00:00 26.1 12 Sur 26 Sur 0 -- -- 55
2019-07-30 12:00:00 24.7 10 Sur 21 Sudoeste 0 -- -- 63
2019-07-30 11:00:00 24.7 4 Sur 16 Sudoeste 0 -- -- 61
2019-07-30 10:00:00 23.4 5 Sur 15 Oeste 0 -- -- 66
2019-07-30 09:00:00 22 4 Sur 8 Sur 0 -- -- 70
2019-07-30 08:00:00 19.3 0 Calma 5 Noroeste 0 -- -- 81
2019-07-30 07:00:00 18.4 4 Norte 8 Nordeste 0 -- -- 81
2019-07-30 06:00:00 20 3 Norte 12 Nordeste 0 -- -- 77
2019-07-30 05:00:00 20.2 3 Norte 9 Nordeste 0 -- -- 82
2019-07-30 04:00:00 20.7 5 Nordeste 12 Nordeste 0 -- -- 83
2019-07-30 03:00:00 21.3 6 Nordeste 14 Nordeste 0 -- -- 82
2019-07-30 02:00:00 21.7 7 Nordeste 15 Nordeste 0 -- -- 82
2019-07-30 01:00:00 22.2 7 Nordeste 12 Nordeste 0 -- -- 81
2019-07-30 00:00:00 22.7 6 Nordeste 12 Este 0 -- -- 78
2019-07-29 23:00:00 21.4 4 Nordeste 8 Nordeste 0 -- -- 80
2019-07-29 22:00:00 24.2 0 Calma 9 Sur 0 -- -- 71
2019-07-29 21:00:00 26.5 4 Sur 19 Sur 0 -- -- 63
2019-07-29 20:00:00 29.9 9 Sur 19 Sur 0 -- -- 37
2019-07-29 19:00:00 30.9 12 Sur 28 Sudoeste 0 -- -- 31
2019-07-29 18:00:00 31.2 14 Sudoeste 30 Sur 0 -- -- 24
2019-07-29 17:00:00 31.4 17 Oeste 29 Oeste 0 -- -- 24
2019-07-29 16:00:00 30.9 14 Sudoeste 39 Sudoeste 0 -- -- 24
2019-07-29 15:00:00 30 15 Sudoeste 33 Sudoeste 0 -- -- 25
2019-07-29 14:00:00 29.2 19 Sudoeste 36 Oeste 0 -- -- 27
2019-07-29 13:00:00 27.7 12 Sudoeste 26 Sur 0 -- -- 31
2019-07-29 12:00:00 25.1 12 Sudoeste 29 Sudoeste 0 -- -- 40
2019-07-29 11:00:00 22.5 7 Sudoeste 14 Sur 0 -- -- 61
2019-07-29 10:00:00 21.2 3 Sur 12 Sudoeste 0 -- -- 67
2019-07-29 09:00:00 18.5 2 Sur 7 Este 0 -- -- 79
2019-07-29 08:00:00 14.9 0 Calma 6 Noroeste 0 -- -- 97
2019-07-29 07:00:00 13 0 Calma 5 Norte 0 -- -- 95
2019-07-29 06:00:00 12.9 0 Calma 5 Noroeste 0 -- -- 93
2019-07-29 05:00:00 13.2 3 Norte 5 Noroeste 0 -- -- 92
2019-07-29 04:00:00 13.9 0 Calma 6 Noroeste 0 -- -- 92
2019-07-29 03:00:00 14.1 4 Noroeste 6 Norte 0 -- -- 89
2019-07-29 02:00:00 16.1 3 Nordeste 6 Nordeste 0 -- -- 81
2019-07-29 01:00:00 16.6 2 Nordeste 8 Nordeste 0 -- -- 78
2019-07-29 00:00:00 18.1 4 Nordeste 8 Este 0 -- -- 72
2019-07-28 23:00:00 18.9 4 Este 13 Este 0 -- -- 68
2019-07-28 22:00:00 20.3 5 Este 16 Este 0 -- -- 63
2019-07-28 21:00:00 23 5 Sur 20 Sur 0 -- -- 53
2019-07-28 20:00:00 24.9 8 Sur 30 Sur 0 -- -- 47
2019-07-28 19:00:00 27.1 13 Sudoeste 30 Sudoeste 0 -- -- 31
2019-07-28 18:00:00 27.8 14 Oeste 41 Oeste 0 -- -- 31
2019-07-28 17:00:00 27.8 14 Sudoeste 27 Sur 0 -- -- 29
2019-07-28 16:00:00 27.2 10 Sur 27 Sudoeste 0 -- -- 30
2019-07-28 15:00:00 26.3 9 Sur 21 Sur 0 -- -- 33
2019-07-28 14:00:00 25.1 6 Sudoeste 22 Sudoeste 0 -- -- 37
2019-07-28 13:00:00 23.9 9 Sur 25 Sur 0 -- -- 41
2019-07-28 12:00:00 22.4 5 Oeste 13 Sur 0 -- -- 44
2019-07-28 11:00:00 20.4 4 Sudeste 11 Nordeste 0 -- -- 52
2019-07-28 10:00:00 17.8 3 Sudeste 10 Este 0 -- -- 67
2019-07-28 09:00:00 15.7 3 Este 9 Este 0 -- -- 74
2019-07-28 08:00:00 12.5 4 Este 9 Este 0 -- -- 93
2019-07-28 07:00:00 11.5 2 Noroeste 6 Sudoeste 0 -- -- 92
2019-07-28 06:00:00 11.5 0 Calma 5 Noroeste 0 -- -- 91
2019-07-28 05:00:00 12.8 0 Calma 5 Sur 0 -- -- 91
2019-07-28 04:00:00 13.3 0 Calma 4 Oeste 0 -- -- 91
2019-07-28 03:00:00 14.6 2 Sudoeste 5 Este 0 -- -- 88
2019-07-28 02:00:00 14.4 0 Calma 3 Sudeste 0 -- -- 90
2019-07-28 01:00:00 15.2 0 Calma 3 Este 0 -- -- 86
2019-07-28 00:00:00 16.7 3 Noroeste 6 Noroeste 0 -- -- 77
2019-07-27 23:00:00 17.4 3 Noroeste 6 Noroeste 0 -- -- 74
2019-07-26 12:00:00 28.8 4 Sur 15 Sudoeste 0 -- -- 35
2019-07-26 11:00:00 26.9 3 Sudeste 10 Sudoeste 0 -- -- 41
2019-07-26 10:00:00 25.5 3 Este 10 Este 0 -- -- 47
2019-07-26 09:00:00 22.5 4 Nordeste 9 Nordeste 0 -- -- 57
2019-07-26 08:00:00 20.7 3 Nordeste 6 Nordeste 0 -- -- 66
2019-07-26 07:00:00 17.2 2 Norte 6 Noroeste 0 -- -- 79
2019-07-26 06:00:00 16.4 4 Norte 6 Noroeste 0 -- -- 80
2019-07-26 05:00:00 16.9 0 Calma 5 Noroeste 0 -- -- 79
2019-07-26 04:00:00 17.1 0 Calma 6 Noroeste 0 -- -- 77
2019-07-26 03:00:00 17.2 3 Norte 6 Noroeste 0 -- -- 76
2019-07-26 02:00:00 18 5 Noroeste 6 Noroeste 0 -- -- 73
2019-07-26 01:00:00 20.1 3 Norte 6 Noroeste 0 -- -- 67
2019-07-26 00:00:00 20.4 4 Noroeste 8 Noroeste 0 -- -- 66
2019-07-25 23:00:00 23.1 2 Noroeste 10 Oeste 0 -- -- 56
2019-07-25 22:00:00 25.7 4 Sur 12 Sudoeste 0 -- -- 48
2019-07-25 21:00:00 27.6 9 Sur 20 Oeste 0 -- -- 43
2019-07-25 20:00:00 30.2 10 Sur 21 Sur 0 -- -- 42
2019-07-25 19:00:00 31.8 9 Sur 27 Sur 0 -- -- 44
2019-07-25 18:00:00 33.1 10 Sur 29 Sur 0 -- -- 39
2019-07-25 17:00:00 34.6 8 Sur 26 Sudoeste 0 -- -- 36
2019-07-25 16:00:00 34.8 9 Sur 27 Sudoeste 0 -- -- 32
2019-07-25 15:00:00 34.6 8 Sur 28 Sur 0 -- -- 28
2019-07-25 14:00:00 33.5 7 Sur 21 Sur 0 -- -- 28
2019-07-25 13:00:00 32.2 6 Sur 19 Sur 0 -- -- 29
2019-07-25 12:00:00 31 4 Sur 18 Sur 0 -- -- 29
2019-07-25 11:00:00 29.2 4 Sur 13 Oeste 0 -- -- 33
2019-07-25 10:00:00 27.2 6 Sudoeste 12 Sudoeste 0 -- -- 38
2019-07-25 09:00:00 25.2 2 Sur 5 Sudoeste 0 -- -- 47
2019-07-25 08:00:00 19 3 Noroeste 6 Noroeste 0 -- -- 79
2019-07-25 07:00:00 16.4 5 Noroeste 6 Noroeste 0 -- -- 82
2019-07-25 06:00:00 17 5 Noroeste 7 Noroeste 0 -- -- 81
2019-07-25 05:00:00 17.8 2 Noroeste 7 Noroeste 0 -- -- 78
2019-07-25 04:00:00 18.3 3 Norte 6 Noroeste 0 -- -- 76
2019-07-25 03:00:00 19.1 4 Noroeste 6 Noroeste 0 -- -- 74
2019-07-25 02:00:00 19.7 3 Norte 5 Noroeste 0 -- -- 72
2019-07-25 01:00:00 20.6 4 Noroeste 6 Noroeste 0 -- -- 69
2019-07-25 00:00:00 21.8 2 Norte 6 Noroeste 0 -- -- 67
2019-07-24 23:00:00 23.2 2 Noroeste 5 Noroeste 0 -- -- 61
2019-07-24 22:00:00 25.7 2 Noroeste 11 Sudoeste 0 -- -- 55
2019-07-24 21:00:00 28.5 6 Sur 19 Sudoeste 0 -- -- 49
2019-07-24 20:00:00 31.1 11 Sur 24 Sudoeste 0 -- -- 43
2019-07-24 19:00:00 33.4 10 Sur 21 Sur 0 -- -- 39
2019-07-24 18:00:00 34.9 8 Sur 23 Sudoeste 0 -- -- 34
2019-07-24 17:00:00 35.7 8 Sur 29 Sudoeste 0 -- -- 29
2019-07-24 16:00:00 36 8 Sur 21 Sudoeste 0 -- -- 26
2019-07-24 15:00:00 35 6 Sur 19 Sur 0 -- -- 28
2019-07-24 14:00:00 34 5 Sur 17 Sur 0 -- -- 29
2019-07-24 13:00:00 32.5 5 Sur 17 Sur 0 -- -- 32
2019-07-24 12:00:00 31.5 5 Sur 15 Sur 0 -- -- 35
2019-07-24 11:00:00 30 4 Sudeste 16 Este 0 -- -- 38
2019-07-24 10:00:00 27.7 4 Este 14 Este 0 -- -- 46
2019-07-24 09:00:00 25.8 4 Este 14 Norte 0 -- -- 47
2019-07-24 08:00:00 22.2 3 Norte 9 Nordeste 0 -- -- 56
2019-07-24 07:00:00 18.6 2 Noroeste 9 Nordeste 0 -- -- 67
2019-07-24 06:00:00 18.1 4 Norte 7 Noroeste 0 -- -- 70
2019-07-24 05:00:00 17.7 4 Norte 6 Norte 0 -- -- 70
2019-07-24 04:00:00 18.1 3 Noroeste 7 Noroeste 0 -- -- 70
2019-07-24 03:00:00 18 3 Norte 7 Noroeste 0 -- -- 69
2019-07-24 02:00:00 18.9 4 Noroeste 5 Noroeste 0 -- -- 69
2019-07-24 01:00:00 20.2 3 Norte 5 Noroeste 0 -- -- 63
2019-07-24 00:00:00 21.2 2 Noroeste 6 Noroeste 0 -- -- 62
2019-07-23 23:00:00 23.5 3 Norte 5 Sur 0 -- -- 56
2019-07-23 22:00:00 27 2 Sur 8 Sur 0 -- -- 47
2019-07-23 21:00:00 29.8 3 Sur 10 Sudoeste 0 -- -- 41
2019-07-23 20:00:00 32.2 3 Sur 19 Sur 0 -- -- 35
2019-07-23 19:00:00 34.1 10 Sur 28 Sudoeste 0 -- -- 30
2019-07-23 18:00:00 35.9 9 Sur 29 Sudoeste 0 -- -- 29
2019-07-23 17:00:00 37 9 Sur 29 Sur 0 -- -- 28
2019-07-23 16:00:00 37.4 10 Sur 32 Sudoeste 0 -- -- 25
2019-07-23 15:00:00 36.9 15 Sur 30 Sur 0 -- -- 21
2019-07-23 14:00:00 36.4 9 Sur 27 Sudoeste 0 -- -- 23
2019-07-23 13:00:00 35.1 9 Sur 24 Sudoeste 0 -- -- 27
2019-07-23 12:00:00 33.3 6 Sur 17 Sur 0 -- -- 29
2019-07-23 11:00:00 31 4 Sur 10 Sudoeste 0 -- -- 34
2019-07-23 10:00:00 28.8 3 Este 9 Sudeste 0 -- -- 40
2019-07-23 09:00:00 25.9 3 Este 6 Este 0 -- -- 47
2019-07-23 08:00:00 18.9 4 Noroeste 6 Noroeste 0 -- -- 76
2019-07-23 07:00:00 16.6 4 Norte 7 Noroeste 0 -- -- 77
2019-07-23 06:00:00 16.5 4 Norte 7 Noroeste 0 -- -- 78
2019-07-23 05:00:00 16.9 5 Noroeste 6 Noroeste 0 -- -- 78
2019-07-23 04:00:00 17.2 2 Norte 7 Noroeste 0 -- -- 78
2019-07-23 03:00:00 17.7 3 Norte 6 Noroeste 0 -- -- 76
2019-07-23 02:00:00 18.8 4 Noroeste 6 Noroeste 0 -- -- 70
2019-07-23 01:00:00 20 3 Norte 6 Noroeste 0 -- -- 68
2019-07-23 00:00:00 20.3 4 Noroeste 6 Noroeste 0 -- -- 69
2019-07-22 23:00:00 22 0 Calma 4 Noroeste 0 -- -- 62
2019-07-22 22:00:00 25.8 0 Calma 10 Sudoeste 0 -- -- 50
2019-07-22 21:00:00 28.4 8 Sur 15 Sur 0 -- -- 45
2019-07-22 20:00:00 31.6 4 Sur 22 Sur 0 -- -- 39
2019-07-22 19:00:00 33.5 7 Sur 25 Sudoeste 0 -- -- 37
2019-07-22 18:00:00 34.8 12 Sur 26 Sur 0 -- -- 33
2019-07-22 17:00:00 35.9 12 Sur 30 Sudoeste 0 -- -- 30
2019-07-22 16:00:00 37.1 8 Sur 35 Sur 0 -- -- 26
2019-07-22 15:00:00 36.5 8 Sur 25 Sur 0 -- -- 23
2019-07-22 14:00:00 35.5 6 Sur 22 Sur 0 -- -- 24
2019-07-22 13:00:00 33.3 4 Sur 18 Sur 0 -- -- 26
2019-07-22 12:00:00 32.3 4 Sur 13 Sur 0 -- -- 32
2019-07-22 11:00:00 30.1 4 Este 12 Este 0 -- -- 37
2019-07-22 10:00:00 28 4 Este 8 Sudeste 0 -- -- 45
2019-07-22 09:00:00 24.9 2 Este 3 Este 0 -- -- 49
2019-07-22 08:00:00 19.1 0 Calma 5 Noroeste 0 -- -- 71
2019-07-22 07:00:00 17.4 0 Calma 8 Noroeste 0 -- -- 73
2019-07-22 06:00:00 17 6 Noroeste 8 Noroeste 0 -- -- 74
2019-07-22 05:00:00 18 3 Norte 5 Noroeste 0 -- -- 70
2019-07-22 04:00:00 18.1 3 Norte 6 Noroeste 0 -- -- 70
2019-07-22 03:00:00 20.2 0 Calma 5 Sudeste 0 -- -- 64
2019-07-22 02:00:00 21.2 4 Noroeste 10 Noroeste 0 -- -- 61
2019-07-22 01:00:00 19.9 7 Noroeste 9 Noroeste 0 -- -- 65
2019-07-22 00:00:00 20.4 3 Noroeste 8 Noroeste 0 -- -- 64
2019-07-21 23:00:00 22.4 3 Noroeste 5 Noroeste 0 -- -- 58
2019-07-21 22:00:00 24.6 4 Sudoeste 7 Oeste 0 -- -- 51
2019-07-21 21:00:00 27.3 2 Sur 15 Sudoeste 0 -- -- 45
2019-07-21 20:00:00 29.3 8 Sur 26 Sudoeste 0 -- -- 41
2019-07-21 19:00:00 30.6 11 Sur 26 Sudoeste 0 -- -- 42
2019-07-21 18:00:00 32.6 12 Sur 26 Sudoeste 0 -- -- 42
2019-07-21 17:00:00 34 9 Sur 27 Sudoeste 0 -- -- 39
2019-07-21 16:00:00 33.7 13 Sudoeste 26 Sudoeste 0 -- -- 35
2019-07-21 15:00:00 33 9 Sur 25 Sudoeste 0 -- -- 36
2019-07-21 14:00:00 32.2 6 Sur 23 Oeste 0 -- -- 34
2019-07-21 13:00:00 31 9 Sur 24 Sudoeste 0 -- -- 35
2019-07-21 12:00:00 29.7 9 Sur 21 Sudoeste 0 -- -- 41
2019-07-21 11:00:00 28.1 4 Sur 14 Sudoeste 0 -- -- 46
2019-07-21 10:00:00 26.1 3 Norte 9 Este 0 -- -- 52
2019-07-21 09:00:00 24.4 3 Este 5 Este 0 -- -- 58
2019-07-21 08:00:00 18.6 2 Noroeste 6 Noroeste 0 -- -- 86
2019-07-21 07:00:00 16.4 4 Noroeste 6 Noroeste 0 -- -- 90
2019-07-21 06:00:00 16.3 3 Norte 7 Noroeste 0 -- -- 88
2019-07-21 05:00:00 17.3 4 Noroeste 5 Noroeste 0 -- -- 86
2019-07-21 04:00:00 18.3 0 Calma 5 Norte 0 -- -- 86
2019-07-21 03:00:00 17.9 3 Norte 5 Noroeste 0 -- -- 86
2019-07-21 02:00:00 18 3 Noroeste 6 Noroeste 0 -- -- 83
2019-07-21 01:00:00 18.4 3 Norte 6 Noroeste 0 -- -- 79
2019-07-21 00:00:00 19.4 3 Noroeste 5 Noroeste 0 -- -- 78
2019-07-20 23:00:00 21.3 0 Calma 5 Noroeste 0 -- -- 72
2019-07-20 22:00:00 23.7 4 Sudoeste 8 Sudoeste 0 -- -- 64
2019-07-20 21:00:00 26 6 Sur 15 Sur 0 -- -- 59
2019-07-20 20:00:00 27.9 8 Sur 22 Sudoeste 0 -- -- 53
2019-07-20 19:00:00 29.3 10 Sur 25 Sur 0 -- -- 50
2019-07-20 18:00:00 31.6 9 Sur 26 Sudoeste 0 -- -- 45
2019-07-20 17:00:00 32.8 13 Sur 25 Sur 0 -- -- 42
2019-07-20 16:00:00 32.8 10 Sudoeste 27 Sur 0 -- -- 37
2019-07-20 15:00:00 31.7 8 Sur 25 Sudoeste 0 -- -- 39
2019-07-20 14:00:00 30.9 4 Sur 15 Sudoeste 0 -- -- 41
2019-07-20 13:00:00 29.1 5 Sur 17 Sur 0 -- -- 46
2019-07-20 12:00:00 27.1 9 Sudoeste 23 Sur 0 -- -- 47
2019-07-20 11:00:00 25.2 10 Sur 24 Sur 0 -- -- 51
2019-07-20 10:00:00 23.3 8 Sudoeste 18 Sudoeste 0 -- -- 57
2019-07-20 09:00:00 21.3 8 Sudoeste 12 Oeste 0 -- -- 64
2019-07-20 08:00:00 16.7 0 Calma 4 Noroeste 0 -- -- 92
2019-07-20 07:00:00 15.4 0 Calma 5 Norte 0 -- -- 94
2019-07-20 06:00:00 15.4 0 Calma 5 Noroeste 0 -- -- 92
2019-07-20 05:00:00 15.6 3 Noroeste 4 Noroeste 0 -- -- 92
2019-07-20 04:00:00 16 3 Norte 6 Noroeste 0 -- -- 91
2019-07-20 03:00:00 16.7 3 Norte 5 Noroeste 0 -- -- 90
2019-07-20 02:00:00 17.5 0 Calma 4 Noroeste 0 -- -- 86
2019-07-20 01:00:00 18.1 2 Noroeste 5 Noroeste 0 -- -- 85
2019-07-20 00:00:00 19.7 0 Calma 5 Sudoeste 0 -- -- 82
2019-07-19 23:00:00 20.9 0 Calma 6 Oeste 0 -- -- 80
2019-07-19 22:00:00 22.7 3 Sur 10 Sudoeste 0 -- -- 77
2019-07-19 21:00:00 24.3 6 Sur 18 Sur 0 -- -- 69
2019-07-19 20:00:00 26.1 7 Sur 20 Sur 0 -- -- 63
2019-07-19 19:00:00 27.2 9 Sudoeste 25 Sur 0 -- -- 60
2019-07-19 18:00:00 28.5 9 Sur 27 Sur 0 -- -- 56
2019-07-19 17:00:00 29.2 14 Sur 32 Sudoeste 0 -- -- 53
2019-07-19 16:00:00 29.5 13 Sur 28 Oeste 0 -- -- 46
2019-07-19 15:00:00 28.7 12 Sudoeste 29 Sur 0 -- -- 47
2019-07-19 14:00:00 27.7 15 Sudoeste 24 Sudoeste 0 -- -- 47
2019-07-19 13:00:00 26.6 7 Sur 26 Sudoeste 0 -- -- 54
2019-07-19 12:00:00 26.3 5 Sur 19 Sudoeste 0 -- -- 55
2019-07-19 11:00:00 24 4 Este 12 Este 0 -- -- 64
2019-07-19 10:00:00 21.6 3 Este 10 Este 0 -- -- 78
2019-07-19 09:00:00 19.4 5 Nordeste 9 Este 0 -- -- 89
2019-07-19 08:00:00 17.3 0 Calma -- -- 0 -- -- 98
2019-07-19 07:00:00 14.8 0 Calma 3 Noroeste 0 -- -- 96
2019-07-19 06:00:00 15.5 0 Calma 6 Noroeste 0 -- -- 96
2019-07-19 05:00:00 16.1 3 Noroeste 5 Noroeste 0 -- -- 94
2019-07-19 04:00:00 17.6 2 Noroeste 6 Sudoeste 0 -- -- 90
2019-07-19 03:00:00 18.5 3 Sur 6 Noroeste 0 -- -- 91
2019-07-19 02:00:00 17.8 4 Noroeste 5 Noroeste 0 -- -- 92
2019-07-19 01:00:00 18.1 3 Norte 5 Noroeste 0 -- -- 86
2019-07-19 00:00:00 20.4 3 Sudoeste 8 Nordeste 0 -- -- 80